Nota Bene — FAA4220 — position and weather

sailwx.info

Track history (hours):
 
Tides and Currents Weather Stations Pressure Air Temp Water Temp Dewpoint Dewpoint Depression Visibility Wind Speed Wind Dir Waves Ship Positions

Nota Bene

Last reported at 2018-May-12 18:50 UTC. Time now 2018-May-20 14:01 UTC.
Position N 47°35' W 003°02'.

Length 11 m.

Type: Sailing vessel. MMSI: 227120860.

Date/timePositionNaut miles runAvg speedWind from/ knotsBaromVisibWave heightAir tempDewpointWater temp
2018-May-12 18:50N 47°35' W 003°02'0 0.3
2018-May-12 18:30N 47°35' W 003°01'2 3.7
2018-May-12 18:00N 47°34' W 003°00'3 6.1
2018-May-12 17:30N 47°31' W 002°58'27 0.6
2018-May-10 18:48N 47°35' W 003°37'2 4.4
2018-May-10 18:17N 47°36' W 003°34'1 5.0
2018-May-10 18:00N 47°35' W 003°32'2 5.0
2018-May-10 17:30N 47°34' W 003°29'3 5.4
2018-May-10 17:00N 47°32' W 003°26'3 5.1
2018-May-10 16:30N 47°31' W 003°23'3 5.3
2018-May-10 16:00N 47°29' W 003°20'3 5.7
2018-May-10 15:30N 47°27' W 003°17'3 4.5
2018-May-10 14:50N 47°27' W 003°13'2 4.8
2018-May-10 14:28N 47°26' W 003°10'4 4.0
2018-May-10 13:23N 47°26' W 003°04'2 5.5
2018-May-10 12:59N 47°28' W 003°02'4 8.0
2018-May-10 12:29N 47°32' W 003°01'2 3.9
2018-May-10 12:00N 47°33' W 003°01'2 2.9
2018-May-10 11:28N 47°32' W 003°02'3 5.8
2018-May-10 11:00N 47°35' W 003°01'1 0.5
2018-May-10 09:16N 47°35' W 003°02'0 0.0
2018-May-10 08:46N 47°35' W 003°02'0 0.0
2018-May-10 08:22N 47°35' W 003°02'0 0.0
2018-May-09 13:18N 47°35' W 003°02'0 0.0
2018-May-09 10:45N 47°35' W 003°02'0 0.0
2018-May-09 10:18N 47°35' W 003°02'  
Track history (hours):
 
Tides and Currents Weather Stations Pressure Air Temp Water Temp Dewpoint Dewpoint Depression Visibility Wind Speed Wind Dir Waves Ship Positions

Nota Bene

Last reported at 2018-May-12 18:50 UTC. Time now 2018-May-20 14:01 UTC.
Position N 47°35' W 003°02'.

Length 11 m.

Type: Sailing vessel. MMSI: 227120860.

Date/timePositionNaut miles runAvg speedWind from/ knotsBaromVisibWave heightAir tempDewpointWater temp
2018-May-12 18:50N 47°35' W 003°02'0 0.3
2018-May-12 18:30N 47°35' W 003°01'2 3.7
2018-May-12 18:00N 47°34' W 003°00'3 6.1
2018-May-12 17:30N 47°31' W 002°58'27 0.6
2018-May-10 18:48N 47°35' W 003°37'2 4.4
2018-May-10 18:17N 47°36' W 003°34'1 5.0
2018-May-10 18:00N 47°35' W 003°32'2 5.0
2018-May-10 17:30N 47°34' W 003°29'3 5.4
2018-May-10 17:00N 47°32' W 003°26'3 5.1
2018-May-10 16:30N 47°31' W 003°23'3 5.3
2018-May-10 16:00N 47°29' W 003°20'3 5.7
2018-May-10 15:30N 47°27' W 003°17'3 4.5
2018-May-10 14:50N 47°27' W 003°13'2 4.8
2018-May-10 14:28N 47°26' W 003°10'4 4.0
2018-May-10 13:23N 47°26' W 003°04'2 5.5
2018-May-10 12:59N 47°28' W 003°02'4 8.0
2018-May-10 12:29N 47°32' W 003°01'2 3.9
2018-May-10 12:00N 47°33' W 003°01'2 2.9
2018-May-10 11:28N 47°32' W 003°02'3 5.8
2018-May-10 11:00N 47°35' W 003°01'1 0.5
2018-May-10 09:16N 47°35' W 003°02'0 0.0
2018-May-10 08:46N 47°35' W 003°02'0 0.0
2018-May-10 08:22N 47°35' W 003°02'0 0.0
2018-May-09 13:18N 47°35' W 003°02'0 0.0
2018-May-09 10:45N 47°35' W 003°02'0 0.0
2018-May-09 10:18N 47°35' W 003°02'  

Dump ship's entire track history